sensor_id;sensor_type;location;lat;lon;timestamp;P1;durP1;ratioP1;P2;durP2;ratioP2
22665;SDS011;11499;49.486;11.104;2023-02-15T00:00:01;15.23;;;9.57;;
22665;SDS011;11499;49.486;11.104;2023-02-15T00:02:28;11.03;;;8.50;;
22665;SDS011;11499;49.486;11.104;2023-02-15T00:04:53;12.33;;;8.33;;
22665;SDS011;11499;49.486;11.104;2023-02-15T00:09:57;13.27;;;9.10;;
22665;SDS011;11499;49.486;11.104;2023-02-15T00:12:22;12.13;;;9.03;;
22665;SDS011;11499;49.486;11.104;2023-02-15T00:14:48;19.73;;;8.77;;
22665;SDS011;11499;49.486;11.104;2023-02-15T00:17:13;11.90;;;9.03;;
22665;SDS011;11499;49.486;11.104;2023-02-15T00:19:39;13.30;;;8.67;;
22665;SDS011;11499;49.486;11.104;2023-02-15T00:22:05;12.20;;;8.80;;
22665;SDS011;11499;49.486;11.104;2023-02-15T00:24:30;13.10;;;8.73;;
22665;SDS011;11499;49.486;11.104;2023-02-15T00:26:56;14.07;;;9.43;;
22665;SDS011;11499;49.486;11.104;2023-02-15T00:29:22;14.80;;;8.83;;
22665;SDS011;11499;49.486;11.104;2023-02-15T00:31:48;12.53;;;9.07;;
22665;SDS011;11499;49.486;11.104;2023-02-15T00:36:26;11.97;;;8.87;;
22665;SDS011;11499;49.486;11.104;2023-02-15T00:38:51;11.30;;;9.17;;
22665;SDS011;11499;49.486;11.104;2023-02-15T00:41:17;15.13;;;9.47;;
22665;SDS011;11499;49.486;11.104;2023-02-15T00:43:42;12.27;;;9.30;;
22665;SDS011;11499;49.486;11.104;2023-02-15T00:46:08;11.03;;;8.97;;
22665;SDS011;11499;49.486;11.104;2023-02-15T00:48:33;12.17;;;8.97;;
22665;SDS011;11499;49.486;11.104;2023-02-15T00:50:59;11.67;;;8.53;;
22665;SDS011;11499;49.486;11.104;2023-02-15T00:53:26;11.33;;;8.37;;
22665;SDS011;11499;49.486;11.104;2023-02-15T00:55:52;10.43;;;8.70;;
22665;SDS011;11499;49.486;11.104;2023-02-15T00:58:18;11.10;;;8.77;;
22665;SDS011;11499;49.486;11.104;2023-02-15T01:03:27;11.07;;;8.73;;
22665;SDS011;11499;49.486;11.104;2023-02-15T01:05:52;11.77;;;8.37;;
22665;SDS011;11499;49.486;11.104;2023-02-15T01:08:17;9.87;;;8.00;;
22665;SDS011;11499;49.486;11.104;2023-02-15T01:10:43;10.00;;;7.43;;
22665;SDS011;11499;49.486;11.104;2023-02-15T01:13:10;10.90;;;8.23;;
22665;SDS011;11499;49.486;11.104;2023-02-15T01:15:36;10.67;;;8.50;;
22665;SDS011;11499;49.486;11.104;2023-02-15T01:18:01;10.43;;;8.43;;
22665;SDS011;11499;49.486;11.104;2023-02-15T01:20:27;9.77;;;8.53;;
22665;SDS011;11499;49.486;11.104;2023-02-15T01:22:54;9.90;;;8.40;;
22665;SDS011;11499;49.486;11.104;2023-02-15T01:25:21;10.60;;;9.23;;
22665;SDS011;11499;49.486;11.104;2023-02-15T01:30:27;9.77;;;8.67;;
22665;SDS011;11499;49.486;11.104;2023-02-15T01:32:53;10.97;;;8.00;;
22665;SDS011;11499;49.486;11.104;2023-02-15T01:35:19;11.00;;;8.90;;
22665;SDS011;11499;49.486;11.104;2023-02-15T01:37:44;9.67;;;7.90;;
22665;SDS011;11499;49.486;11.104;2023-02-15T01:40:14;11.20;;;8.80;;
22665;SDS011;11499;49.486;11.104;2023-02-15T01:42:41;11.27;;;9.33;;
22665;SDS011;11499;49.486;11.104;2023-02-15T01:47:50;11.93;;;9.67;;
22665;SDS011;11499;49.486;11.104;2023-02-15T01:50:30;10.23;;;8.97;;
22665;SDS011;11499;49.486;11.104;2023-02-15T01:58:10;10.63;;;8.97;;
22665;SDS011;11499;49.486;11.104;2023-02-15T02:00:36;12.43;;;9.50;;
22665;SDS011;11499;49.486;11.104;2023-02-15T02:03:02;11.10;;;9.10;;
22665;SDS011;11499;49.486;11.104;2023-02-15T02:05:29;13.10;;;9.27;;
22665;SDS011;11499;49.486;11.104;2023-02-15T02:07:56;9.77;;;8.60;;
22665;SDS011;11499;49.486;11.104;2023-02-15T02:10:23;11.23;;;8.53;;
22665;SDS011;11499;49.486;11.104;2023-02-15T02:12:51;11.53;;;8.17;;
22665;SDS011;11499;49.486;11.104;2023-02-15T02:15:21;12.10;;;8.77;;
22665;SDS011;11499;49.486;11.104;2023-02-15T02:32:41;10.77;;;8.47;;
22665;SDS011;11499;49.486;11.104;2023-02-15T02:35:15;10.37;;;8.30;;
22665;SDS011;11499;49.486;11.104;2023-02-15T02:43:12;10.00;;;8.50;;
22665;SDS011;11499;49.486;11.104;2023-02-15T02:45:55;10.57;;;9.23;;
22665;SDS011;11499;49.486;11.104;2023-02-15T02:48:26;9.77;;;8.53;;
22665;SDS011;11499;49.486;11.104;2023-02-15T02:53:43;12.67;;;9.73;;
22665;SDS011;11499;49.486;11.104;2023-02-15T02:56:11;10.60;;;9.10;;
22665;SDS011;11499;49.486;11.104;2023-02-15T02:58:48;12.03;;;8.87;;
22665;SDS011;11499;49.486;11.104;2023-02-15T03:01:46;13.33;;;9.97;;
22665;SDS011;11499;49.486;11.104;2023-02-15T03:04:19;11.17;;;9.47;;
22665;SDS011;11499;49.486;11.104;2023-02-15T03:06:52;12.77;;;9.57;;
22665;SDS011;11499;49.486;11.104;2023-02-15T03:09:30;11.67;;;9.60;;
22665;SDS011;11499;49.486;11.104;2023-02-15T03:12:07;12.07;;;9.50;;
22665;SDS011;11499;49.486;11.104;2023-02-15T03:14:39;12.37;;;9.70;;
22665;SDS011;11499;49.486;11.104;2023-02-15T03:17:07;11.90;;;9.57;;
22665;SDS011;11499;49.486;11.104;2023-02-15T03:19:34;11.90;;;9.03;;
22665;SDS011;11499;49.486;11.104;2023-02-15T03:25:16;12.30;;;9.40;;
22665;SDS011;11499;49.486;11.104;2023-02-15T03:27:54;11.57;;;9.27;;
22665;SDS011;11499;49.486;11.104;2023-02-15T03:30:23;11.70;;;9.37;;
22665;SDS011;11499;49.486;11.104;2023-02-15T03:32:51;12.37;;;10.30;;
22665;SDS011;11499;49.486;11.104;2023-02-15T03:35:19;11.90;;;9.97;;
22665;SDS011;11499;49.486;11.104;2023-02-15T03:37:50;13.97;;;10.50;;
22665;SDS011;11499;49.486;11.104;2023-02-15T03:40:29;13.67;;;10.10;;
22665;SDS011;11499;49.486;11.104;2023-02-15T03:49:09;11.57;;;8.77;;
22665;SDS011;11499;49.486;11.104;2023-02-15T03:52:58;11.27;;;9.17;;
22665;SDS011;11499;49.486;11.104;2023-02-15T03:55:26;12.10;;;9.87;;
22665;SDS011;11499;49.486;11.104;2023-02-15T03:57:53;12.00;;;9.87;;
22665;SDS011;11499;49.486;11.104;2023-02-15T04:00:37;12.77;;;9.53;;
22665;SDS011;11499;49.486;11.104;2023-02-15T04:05:58;13.00;;;10.53;;
22665;SDS011;11499;49.486;11.104;2023-02-15T04:08:26;12.00;;;10.10;;
22665;SDS011;11499;49.486;11.104;2023-02-15T04:11:11;11.93;;;9.50;;
22665;SDS011;11499;49.486;11.104;2023-02-15T04:13:37;13.47;;;10.37;;
22665;SDS011;11499;49.486;11.104;2023-02-15T04:16:02;12.60;;;9.33;;
22665;SDS011;11499;49.486;11.104;2023-02-15T04:20:51;13.07;;;10.70;;
22665;SDS011;11499;49.486;11.104;2023-02-15T04:23:35;12.47;;;10.33;;
22665;SDS011;11499;49.486;11.104;2023-02-15T04:26:19;13.87;;;10.10;;
22665;SDS011;11499;49.486;11.104;2023-02-15T04:28:44;12.30;;;9.70;;
22665;SDS011;11499;49.486;11.104;2023-02-15T04:31:10;11.57;;;9.47;;
22665;SDS011;11499;49.486;11.104;2023-02-15T04:33:35;11.40;;;9.50;;
22665;SDS011;11499;49.486;11.104;2023-02-15T04:36:01;13.00;;;9.93;;
22665;SDS011;11499;49.486;11.104;2023-02-15T04:38:28;12.30;;;9.73;;
22665;SDS011;11499;49.486;11.104;2023-02-15T04:40:53;11.97;;;9.57;;
22665;SDS011;11499;49.486;11.104;2023-02-15T04:43:19;12.97;;;10.63;;
22665;SDS011;11499;49.486;11.104;2023-02-15T04:48:25;12.93;;;9.93;;
22665;SDS011;11499;49.486;11.104;2023-02-15T04:50:50;13.17;;;10.37;;
22665;SDS011;11499;49.486;11.104;2023-02-15T04:53:16;12.33;;;10.20;;
22665;SDS011;11499;49.486;11.104;2023-02-15T04:55:43;12.17;;;9.83;;
22665;SDS011;11499;49.486;11.104;2023-02-15T04:58:08;11.93;;;9.97;;
22665;SDS011;11499;49.486;11.104;2023-02-15T05:00:34;15.30;;;11.33;;
22665;SDS011;11499;49.486;11.104;2023-02-15T05:02:59;12.63;;;9.77;;
22665;SDS011;11499;49.486;11.104;2023-02-15T05:05:25;12.67;;;9.93;;
22665;SDS011;11499;49.486;11.104;2023-02-15T05:07:50;11.87;;;9.17;;
22665;SDS011;11499;49.486;11.104;2023-02-15T05:10:16;10.70;;;9.00;;
22665;SDS011;11499;49.486;11.104;2023-02-15T05:15:22;12.23;;;9.67;;
22665;SDS011;11499;49.486;11.104;2023-02-15T05:17:47;10.80;;;8.93;;
22665;SDS011;11499;49.486;11.104;2023-02-15T05:20:13;10.27;;;8.33;;
22665;SDS011;11499;49.486;11.104;2023-02-15T05:22:38;11.67;;;9.03;;
22665;SDS011;11499;49.486;11.104;2023-02-15T05:25:05;13.37;;;10.30;;
22665;SDS011;11499;49.486;11.104;2023-02-15T05:27:49;14.40;;;11.17;;
22665;SDS011;11499;49.486;11.104;2023-02-15T05:30:33;15.20;;;11.10;;
22665;SDS011;11499;49.486;11.104;2023-02-15T05:32:59;13.70;;;10.43;;
22665;SDS011;11499;49.486;11.104;2023-02-15T05:35:24;14.07;;;10.60;;
22665;SDS011;11499;49.486;11.104;2023-02-15T05:41:05;13.20;;;10.13;;
22665;SDS011;11499;49.486;11.104;2023-02-15T05:43:32;11.93;;;9.60;;
22665;SDS011;11499;49.486;11.104;2023-02-15T05:45:58;14.00;;;10.87;;
22665;SDS011;11499;49.486;11.104;2023-02-15T05:48:24;11.37;;;9.23;;
22665;SDS011;11499;49.486;11.104;2023-02-15T05:51:01;13.90;;;10.60;;
22665;SDS011;11499;49.486;11.104;2023-02-15T05:53:30;12.80;;;10.00;;
22665;SDS011;11499;49.486;11.104;2023-02-15T05:55:56;12.67;;;10.07;;
22665;SDS011;11499;49.486;11.104;2023-02-15T05:58:27;13.57;;;10.60;;
22665;SDS011;11499;49.486;11.104;2023-02-15T06:00:53;12.67;;;9.97;;
22665;SDS011;11499;49.486;11.104;2023-02-15T06:03:19;15.73;;;11.20;;
22665;SDS011;11499;49.486;11.104;2023-02-15T06:08:11;13.40;;;10.53;;
22665;SDS011;11499;49.486;11.104;2023-02-15T06:10:37;15.63;;;11.53;;
22665;SDS011;11499;49.486;11.104;2023-02-15T06:13:03;14.27;;;10.97;;
22665;SDS011;11499;49.486;11.104;2023-02-15T06:15:28;14.37;;;11.47;;
22665;SDS011;11499;49.486;11.104;2023-02-15T06:17:54;13.67;;;10.60;;
22665;SDS011;11499;49.486;11.104;2023-02-15T06:20:19;15.50;;;11.07;;
22665;SDS011;11499;49.486;11.104;2023-02-15T06:22:45;15.57;;;11.27;;
22665;SDS011;11499;49.486;11.104;2023-02-15T06:25:11;14.17;;;11.00;;
22665;SDS011;11499;49.486;11.104;2023-02-15T06:27:37;14.83;;;10.77;;
22665;SDS011;11499;49.486;11.104;2023-02-15T06:30:03;15.67;;;10.83;;
22665;SDS011;11499;49.486;11.104;2023-02-15T06:35:19;13.67;;;10.73;;
22665;SDS011;11499;49.486;11.104;2023-02-15T06:37:46;14.77;;;11.10;;
22665;SDS011;11499;49.486;11.104;2023-02-15T06:40:12;13.30;;;9.87;;
22665;SDS011;11499;49.486;11.104;2023-02-15T06:42:38;13.17;;;9.83;;
22665;SDS011;11499;49.486;11.104;2023-02-15T06:45:03;11.13;;;9.47;;
22665;SDS011;11499;49.486;11.104;2023-02-15T06:47:29;12.33;;;9.47;;
22665;SDS011;11499;49.486;11.104;2023-02-15T06:49:55;14.80;;;10.43;;
22665;SDS011;11499;49.486;11.104;2023-02-15T06:52:20;11.73;;;10.07;;
22665;SDS011;11499;49.486;11.104;2023-02-15T06:54:46;12.93;;;10.10;;
22665;SDS011;11499;49.486;11.104;2023-02-15T06:57:11;12.77;;;9.30;;
22665;SDS011;11499;49.486;11.104;2023-02-15T07:02:18;12.47;;;9.77;;
22665;SDS011;11499;49.486;11.104;2023-02-15T07:04:44;13.47;;;9.43;;
22665;SDS011;11499;49.486;11.104;2023-02-15T07:07:09;11.73;;;9.50;;
22665;SDS011;11499;49.486;11.104;2023-02-15T07:09:36;12.40;;;9.63;;
22665;SDS011;11499;49.486;11.104;2023-02-15T07:12:02;12.30;;;9.60;;
22665;SDS011;11499;49.486;11.104;2023-02-15T07:14:46;12.13;;;9.47;;
22665;SDS011;11499;49.486;11.104;2023-02-15T07:17:12;12.20;;;9.77;;
22665;SDS011;11499;49.486;11.104;2023-02-15T07:19:37;11.63;;;9.50;;
22665;SDS011;11499;49.486;11.104;2023-02-15T07:22:02;11.67;;;9.40;;
22665;SDS011;11499;49.486;11.104;2023-02-15T07:24:29;11.50;;;9.80;;
22665;SDS011;11499;49.486;11.104;2023-02-15T07:29:09;12.07;;;10.07;;
22665;SDS011;11499;49.486;11.104;2023-02-15T07:31:35;14.57;;;10.43;;
22665;SDS011;11499;49.486;11.104;2023-02-15T07:34:00;13.23;;;10.37;;
22665;SDS011;11499;49.486;11.104;2023-02-15T07:36:26;12.53;;;10.23;;
22665;SDS011;11499;49.486;11.104;2023-02-15T07:38:51;11.90;;;10.20;;
22665;SDS011;11499;49.486;11.104;2023-02-15T07:41:17;11.60;;;9.90;;
22665;SDS011;11499;49.486;11.104;2023-02-15T07:43:43;12.30;;;10.17;;
22665;SDS011;11499;49.486;11.104;2023-02-15T07:46:10;12.57;;;10.43;;
22665;SDS011;11499;49.486;11.104;2023-02-15T07:48:38;12.40;;;10.47;;
22665;SDS011;11499;49.486;11.104;2023-02-15T07:51:05;12.43;;;10.13;;
22665;SDS011;11499;49.486;11.104;2023-02-15T07:56:13;12.00;;;10.13;;
22665;SDS011;11499;49.486;11.104;2023-02-15T07:58:39;12.23;;;10.27;;
22665;SDS011;11499;49.486;11.104;2023-02-15T08:01:18;11.13;;;9.43;;
22665;SDS011;11499;49.486;11.104;2023-02-15T08:03:49;12.47;;;9.70;;
22665;SDS011;11499;49.486;11.104;2023-02-15T08:06:15;12.55;;;10.90;;
22665;SDS011;11499;49.486;11.104;2023-02-15T08:08:41;12.03;;;10.17;;
22665;SDS011;11499;49.486;11.104;2023-02-15T08:13:51;10.90;;;9.27;;
22665;SDS011;11499;49.486;11.104;2023-02-15T08:16:19;11.33;;;9.83;;
22665;SDS011;11499;49.486;11.104;2023-02-15T08:21:29;12.43;;;9.97;;
22665;SDS011;11499;49.486;11.104;2023-02-15T08:23:56;12.93;;;9.90;;
22665;SDS011;11499;49.486;11.104;2023-02-15T08:26:22;11.73;;;9.57;;
22665;SDS011;11499;49.486;11.104;2023-02-15T08:28:48;12.83;;;10.23;;
22665;SDS011;11499;49.486;11.104;2023-02-15T08:31:15;10.87;;;8.93;;
22665;SDS011;11499;49.486;11.104;2023-02-15T08:33:41;12.00;;;9.97;;
22665;SDS011;11499;49.486;11.104;2023-02-15T08:36:09;10.37;;;9.10;;
22665;SDS011;11499;49.486;11.104;2023-02-15T08:38:37;12.13;;;8.63;;
22665;SDS011;11499;49.486;11.104;2023-02-15T08:41:13;11.17;;;8.77;;
22665;SDS011;11499;49.486;11.104;2023-02-15T08:43:41;11.23;;;9.10;;
22665;SDS011;11499;49.486;11.104;2023-02-15T08:48:29;10.10;;;8.43;;
22665;SDS011;11499;49.486;11.104;2023-02-15T08:50:54;10.20;;;8.60;;
22665;SDS011;11499;49.486;11.104;2023-02-15T08:53:20;9.70;;;8.27;;
22665;SDS011;11499;49.486;11.104;2023-02-15T08:55:46;10.13;;;7.30;;
22665;SDS011;11499;49.486;11.104;2023-02-15T08:58:19;9.83;;;8.23;;
22665;SDS011;11499;49.486;11.104;2023-02-15T09:00:45;11.50;;;7.80;;
22665;SDS011;11499;49.486;11.104;2023-02-15T09:03:10;10.37;;;8.57;;
22665;SDS011;11499;49.486;11.104;2023-02-15T09:05:36;9.23;;;7.80;;
22665;SDS011;11499;49.486;11.104;2023-02-15T09:08:01;11.60;;;8.17;;
22665;SDS011;11499;49.486;11.104;2023-02-15T09:10:27;10.40;;;8.23;;
22665;SDS011;11499;49.486;11.104;2023-02-15T09:14:20;11.23;;;10.13;;
22665;SDS011;11499;49.486;11.104;2023-02-15T09:16:46;13.60;;;9.00;;
22665;SDS011;11499;49.486;11.104;2023-02-15T09:19:17;10.13;;;8.30;;
22665;SDS011;11499;49.486;11.104;2023-02-15T09:21:43;10.10;;;8.47;;
22665;SDS011;11499;49.486;11.104;2023-02-15T09:24:09;9.27;;;8.27;;
22665;SDS011;11499;49.486;11.104;2023-02-15T09:26:40;9.70;;;8.40;;
22665;SDS011;11499;49.486;11.104;2023-02-15T09:29:08;9.47;;;7.83;;
22665;SDS011;11499;49.486;11.104;2023-02-15T09:31:39;8.80;;;7.73;;
22665;SDS011;11499;49.486;11.104;2023-02-15T09:34:08;8.87;;;7.73;;
22665;SDS011;11499;49.486;11.104;2023-02-15T09:36:35;7.10;;;6.30;;
22665;SDS011;11499;49.486;11.104;2023-02-15T09:39:07;9.30;;;7.20;;
22665;SDS011;11499;49.486;11.104;2023-02-15T09:49:56;7.80;;;6.97;;
22665;SDS011;11499;49.486;11.104;2023-02-15T09:52:33;7.73;;;6.67;;
22665;SDS011;11499;49.486;11.104;2023-02-15T09:55:30;9.40;;;7.53;;
22665;SDS011;11499;49.486;11.104;2023-02-15T09:58:08;8.77;;;6.73;;
22665;SDS011;11499;49.486;11.104;2023-02-15T10:01:20;9.67;;;7.63;;
22665;SDS011;11499;49.486;11.104;2023-02-15T10:10:27;8.67;;;6.33;;
22665;SDS011;11499;49.486;11.104;2023-02-15T10:16:04;9.27;;;6.40;;
22665;SDS011;11499;49.486;11.104;2023-02-15T10:24:30;7.63;;;6.37;;
22665;SDS011;11499;49.486;11.104;2023-02-15T10:27:03;8.97;;;7.70;;
22665;SDS011;11499;49.486;11.104;2023-02-15T10:29:38;8.33;;;6.80;;
22665;SDS011;11499;49.486;11.104;2023-02-15T10:47:56;8.07;;;7.23;;
22665;SDS011;11499;49.486;11.104;2023-02-15T10:50:39;8.90;;;7.30;;
22665;SDS011;11499;49.486;11.104;2023-02-15T10:55:50;9.43;;;7.30;;
22665;SDS011;11499;49.486;11.104;2023-02-15T10:58:28;10.30;;;7.03;;
22665;SDS011;11499;49.486;11.104;2023-02-15T11:05:57;7.67;;;6.90;;
22665;SDS011;11499;49.486;11.104;2023-02-15T11:08:25;9.33;;;7.07;;
22665;SDS011;11499;49.486;11.104;2023-02-15T11:10:56;10.90;;;6.87;;
22665;SDS011;11499;49.486;11.104;2023-02-15T11:13:27;8.20;;;7.30;;
22665;SDS011;11499;49.486;11.104;2023-02-15T11:16:01;9.53;;;7.63;;
22665;SDS011;11499;49.486;11.104;2023-02-15T11:21:29;9.07;;;6.60;;
22665;SDS011;11499;49.486;11.104;2023-02-15T11:24:09;8.97;;;6.63;;
22665;SDS011;11499;49.486;11.104;2023-02-15T11:29:25;7.80;;;7.00;;
22665;SDS011;11499;49.486;11.104;2023-02-15T11:31:59;10.67;;;7.10;;
22665;SDS011;11499;49.486;11.104;2023-02-15T11:34:49;9.90;;;6.93;;
22665;SDS011;11499;49.486;11.104;2023-02-15T11:37:29;8.82;;;7.93;;
22665;SDS011;11499;49.486;11.104;2023-02-15T11:40:12;8.23;;;7.30;;
22665;SDS011;11499;49.486;11.104;2023-02-15T11:42:56;9.53;;;6.90;;
22665;SDS011;11499;49.486;11.104;2023-02-15T11:45:27;7.40;;;6.60;;
22665;SDS011;11499;49.486;11.104;2023-02-15T11:47:57;8.20;;;6.67;;
22665;SDS011;11499;49.486;11.104;2023-02-15T11:50:25;9.10;;;7.23;;
22665;SDS011;11499;49.486;11.104;2023-02-15T11:56:02;9.07;;;7.13;;
22665;SDS011;11499;49.486;11.104;2023-02-15T11:58:49;8.27;;;7.40;;
22665;SDS011;11499;49.486;11.104;2023-02-15T12:01:24;9.33;;;7.50;;
22665;SDS011;11499;49.486;11.104;2023-02-15T12:06:43;8.80;;;7.67;;
22665;SDS011;11499;49.486;11.104;2023-02-15T12:09:18;10.73;;;8.13;;
22665;SDS011;11499;49.486;11.104;2023-02-15T12:11:47;9.47;;;7.27;;
22665;SDS011;11499;49.486;11.104;2023-02-15T12:14:13;9.60;;;7.63;;
22665;SDS011;11499;49.486;11.104;2023-02-15T12:16:45;8.63;;;7.73;;
22665;SDS011;11499;49.486;11.104;2023-02-15T12:22:19;7.90;;;7.10;;
22665;SDS011;11499;49.486;11.104;2023-02-15T12:25:02;9.20;;;8.03;;
22665;SDS011;11499;49.486;11.104;2023-02-15T12:27:44;9.57;;;7.27;;
22665;SDS011;11499;49.486;11.104;2023-02-15T12:30:21;8.83;;;7.53;;
22665;SDS011;11499;49.486;11.104;2023-02-15T12:33:04;8.50;;;7.53;;
22665;SDS011;11499;49.486;11.104;2023-02-15T12:35:39;9.37;;;7.30;;
22665;SDS011;11499;49.486;11.104;2023-02-15T12:40:35;8.77;;;7.87;;
22665;SDS011;11499;49.486;11.104;2023-02-15T12:43:02;8.67;;;7.77;;
22665;SDS011;11499;49.486;11.104;2023-02-15T12:48:17;8.40;;;7.43;;
22665;SDS011;11499;49.486;11.104;2023-02-15T12:50:48;8.60;;;7.70;;
22665;SDS011;11499;49.486;11.104;2023-02-15T12:53:19;9.10;;;7.73;;
22665;SDS011;11499;49.486;11.104;2023-02-15T12:55:56;9.37;;;7.70;;
22665;SDS011;11499;49.486;11.104;2023-02-15T12:58:29;9.23;;;8.27;;
22665;SDS011;11499;49.486;11.104;2023-02-15T13:03:34;8.93;;;8.03;;
22665;SDS011;11499;49.486;11.104;2023-02-15T13:06:00;10.83;;;8.57;;
22665;SDS011;11499;49.486;11.104;2023-02-15T13:08:33;8.90;;;8.00;;
22665;SDS011;11499;49.486;11.104;2023-02-15T13:11:08;10.30;;;8.60;;
22665;SDS011;11499;49.486;11.104;2023-02-15T13:13:38;12.43;;;9.13;;
22665;SDS011;11499;49.486;11.104;2023-02-15T13:19:37;10.00;;;8.43;;
22665;SDS011;11499;49.486;11.104;2023-02-15T13:22:08;10.47;;;8.90;;
22665;SDS011;11499;49.486;11.104;2023-02-15T13:24:46;10.27;;;9.17;;
22665;SDS011;11499;49.486;11.104;2023-02-15T13:27:15;10.30;;;9.30;;
22665;SDS011;11499;49.486;11.104;2023-02-15T13:29:44;10.80;;;9.57;;
22665;SDS011;11499;49.486;11.104;2023-02-15T13:32:22;13.37;;;9.30;;
22665;SDS011;11499;49.486;11.104;2023-02-15T13:35:02;10.67;;;9.50;;
22665;SDS011;11499;49.486;11.104;2023-02-15T13:37:44;13.43;;;9.97;;
22665;SDS011;11499;49.486;11.104;2023-02-15T13:40:28;13.07;;;10.20;;
22665;SDS011;11499;49.486;11.104;2023-02-15T13:56:43;12.57;;;10.93;;
22665;SDS011;11499;49.486;11.104;2023-02-15T14:05:00;14.77;;;12.30;;
22665;SDS011;11499;49.486;11.104;2023-02-15T14:11:03;19.52;;;16.58;;
22665;SDS011;11499;49.486;11.104;2023-02-15T14:16:45;14.77;;;12.80;;
22665;SDS011;11499;49.486;11.104;2023-02-15T14:19:25;13.87;;;12.40;;
22665;SDS011;11499;49.486;11.104;2023-02-15T14:22:01;15.53;;;12.90;;
22665;SDS011;11499;49.486;11.104;2023-02-15T14:24:42;15.60;;;13.10;;
22665;SDS011;11499;49.486;11.104;2023-02-15T14:27:32;14.97;;;12.03;;
22665;SDS011;11499;49.486;11.104;2023-02-15T14:32:46;17.77;;;15.93;;
22665;SDS011;11499;49.486;11.104;2023-02-15T14:38:02;16.00;;;14.27;;
22665;SDS011;11499;49.486;11.104;2023-02-15T14:40:48;17.73;;;13.77;;
22665;SDS011;11499;49.486;11.104;2023-02-15T14:46:20;17.23;;;13.37;;
22665;SDS011;11499;49.486;11.104;2023-02-15T14:49:04;17.13;;;14.43;;
22665;SDS011;11499;49.486;11.104;2023-02-15T14:54:09;17.73;;;13.87;;
22665;SDS011;11499;49.486;11.104;2023-02-15T14:56:36;15.43;;;13.80;;
22665;SDS011;11499;49.486;11.104;2023-02-15T14:59:13;17.23;;;14.10;;
22665;SDS011;11499;49.486;11.104;2023-02-15T15:04:29;18.53;;;14.83;;
22665;SDS011;11499;49.486;11.104;2023-02-15T15:06:58;17.60;;;14.63;;
22665;SDS011;11499;49.486;11.104;2023-02-15T15:09:27;18.53;;;14.63;;
22665;SDS011;11499;49.486;11.104;2023-02-15T15:11:55;15.93;;;13.83;;
22665;SDS011;11499;49.486;11.104;2023-02-15T15:15:00;16.90;;;14.30;;
22665;SDS011;11499;49.486;11.104;2023-02-15T15:22:30;19.33;;;15.50;;
22665;SDS011;11499;49.486;11.104;2023-02-15T15:24:57;18.03;;;15.23;;
22665;SDS011;11499;49.486;11.104;2023-02-15T15:27:50;15.70;;;13.83;;
22665;SDS011;11499;49.486;11.104;2023-02-15T15:31:48;16.63;;;13.93;;
22665;SDS011;11499;49.486;11.104;2023-02-15T15:34:18;16.50;;;14.00;;
22665;SDS011;11499;49.486;11.104;2023-02-15T15:48:03;17.13;;;14.70;;
22665;SDS011;11499;49.486;11.104;2023-02-15T15:50:40;18.03;;;14.70;;
22665;SDS011;11499;49.486;11.104;2023-02-15T15:53:10;17.73;;;15.40;;
22665;SDS011;11499;49.486;11.104;2023-02-15T15:58:34;17.43;;;15.50;;
22665;SDS011;11499;49.486;11.104;2023-02-15T16:01:02;19.37;;;15.93;;
22665;SDS011;11499;49.486;11.104;2023-02-15T16:03:33;20.13;;;14.97;;
22665;SDS011;11499;49.486;11.104;2023-02-15T16:05:59;19.63;;;16.07;;
22665;SDS011;11499;49.486;11.104;2023-02-15T16:08:35;21.27;;;17.10;;
22665;SDS011;11499;49.486;11.104;2023-02-15T16:14:08;17.77;;;14.60;;
22665;SDS011;11499;49.486;11.104;2023-02-15T16:16:45;18.90;;;15.57;;
22665;SDS011;11499;49.486;11.104;2023-02-15T16:19:24;20.47;;;15.93;;
22665;SDS011;11499;49.486;11.104;2023-02-15T16:25:17;20.03;;;16.50;;
22665;SDS011;11499;49.486;11.104;2023-02-15T16:27:53;19.27;;;16.23;;
22665;SDS011;11499;49.486;11.104;2023-02-15T16:30:20;20.67;;;15.77;;
22665;SDS011;11499;49.486;11.104;2023-02-15T16:32:54;21.43;;;16.93;;
22665;SDS011;11499;49.486;11.104;2023-02-15T16:35:28;18.77;;;15.40;;
22665;SDS011;11499;49.486;11.104;2023-02-15T16:37:54;20.97;;;15.87;;
22665;SDS011;11499;49.486;11.104;2023-02-15T16:42:48;17.23;;;14.77;;
22665;SDS011;11499;49.486;11.104;2023-02-15T16:45:19;19.73;;;15.10;;
22665;SDS011;11499;49.486;11.104;2023-02-15T16:47:49;20.47;;;15.37;;
22665;SDS011;11499;49.486;11.104;2023-02-15T16:52:07;20.97;;;15.73;;
22665;SDS011;11499;49.486;11.104;2023-02-15T16:54:41;20.97;;;16.33;;
22665;SDS011;11499;49.486;11.104;2023-02-15T16:57:15;23.23;;;17.47;;
22665;SDS011;11499;49.486;11.104;2023-02-15T16:59:48;22.17;;;16.63;;
22665;SDS011;11499;49.486;11.104;2023-02-15T17:02:17;21.20;;;16.17;;
22665;SDS011;11499;49.486;11.104;2023-02-15T17:04:56;21.97;;;16.30;;
22665;SDS011;11499;49.486;11.104;2023-02-15T17:07:32;24.53;;;17.43;;
22665;SDS011;11499;49.486;11.104;2023-02-15T17:09:58;20.57;;;16.90;;
22665;SDS011;11499;49.486;11.104;2023-02-15T17:12:43;21.00;;;16.47;;
22665;SDS011;11499;49.486;11.104;2023-02-15T17:18:29;22.47;;;17.13;;
22665;SDS011;11499;49.486;11.104;2023-02-15T17:21:10;23.97;;;17.17;;
22665;SDS011;11499;49.486;11.104;2023-02-15T17:23:42;21.77;;;16.90;;
22665;SDS011;11499;49.486;11.104;2023-02-15T17:26:22;22.30;;;17.70;;
22665;SDS011;11499;49.486;11.104;2023-02-15T17:29:02;25.13;;;17.13;;
22665;SDS011;11499;49.486;11.104;2023-02-15T17:31:49;25.83;;;19.27;;
22665;SDS011;11499;49.486;11.104;2023-02-15T17:37:23;26.10;;;19.60;;
22665;SDS011;11499;49.486;11.104;2023-02-15T17:39:59;25.63;;;19.53;;
22665;SDS011;11499;49.486;11.104;2023-02-15T17:45:16;26.60;;;19.80;;
22665;SDS011;11499;49.486;11.104;2023-02-15T17:47:42;29.73;;;19.37;;
22665;SDS011;11499;49.486;11.104;2023-02-15T17:50:10;27.93;;;20.17;;
22665;SDS011;11499;49.486;11.104;2023-02-15T17:52:44;28.87;;;19.47;;
22665;SDS011;11499;49.486;11.104;2023-02-15T17:55:13;32.57;;;20.77;;
22665;SDS011;11499;49.486;11.104;2023-02-15T17:57:59;29.57;;;21.53;;
22665;SDS011;11499;49.486;11.104;2023-02-15T18:00:27;33.40;;;21.00;;
22665;SDS011;11499;49.486;11.104;2023-02-15T18:03:11;32.27;;;19.70;;
22665;SDS011;11499;49.486;11.104;2023-02-15T18:05:56;28.87;;;20.20;;
22665;SDS011;11499;49.486;11.104;2023-02-15T18:08:41;30.83;;;21.57;;
22665;SDS011;11499;49.486;11.104;2023-02-15T18:13:02;29.57;;;20.00;;
22665;SDS011;11499;49.486;11.104;2023-02-15T18:15:28;32.03;;;21.03;;
22665;SDS011;11499;49.486;11.104;2023-02-15T18:17:54;30.50;;;21.03;;
22665;SDS011;11499;49.486;11.104;2023-02-15T18:20:21;31.93;;;21.93;;
22665;SDS011;11499;49.486;11.104;2023-02-15T18:22:56;31.47;;;20.33;;
22665;SDS011;11499;49.486;11.104;2023-02-15T18:25:22;32.90;;;20.77;;
22665;SDS011;11499;49.486;11.104;2023-02-15T18:27:51;32.63;;;21.20;;
22665;SDS011;11499;49.486;11.104;2023-02-15T18:30:18;33.10;;;21.03;;
22665;SDS011;11499;49.486;11.104;2023-02-15T18:32:45;30.13;;;21.00;;
22665;SDS011;11499;49.486;11.104;2023-02-15T18:35:15;34.03;;;20.60;;
22665;SDS011;11499;49.486;11.104;2023-02-15T18:40:22;36.23;;;21.70;;
22665;SDS011;11499;49.486;11.104;2023-02-15T18:42:51;36.03;;;23.10;;